Time;durP1;ratioP1;P1;durP2;ratioP2;P2;SDS_P1;SDS_P2;PMS_P1;PMS_P2;Temp;Humidity;BMP_temperature;BMP_pressure;BME280_temperature;BME280_humidity;BME280_pressure;Samples;Min_cycle;Max_cycle;Signal;HPM_P1;HPM_P2
2022/12/22 06:33:36;;;;;;;25.43;17.13;;;;;;;;;;1856623;75;27814;-50
2022/12/22 06:36:06;;;;;;;26.07;16.47;;;;;;;;;;1820314;77;21433;-49
2022/12/22 06:38:33;;;;;;;23.83;15.93;;;;;;;;;;1817192;77;21851;-49
2022/12/22 06:40:59;;;;;;;24.37;15.03;;;;;;;;;;1816630;77;21060;-50
2022/12/22 06:43:26;;;;;;;25.43;15.43;;;;;;;;;;1817896;77;22248;-50
2022/12/22 06:45:52;;;;;;;28.40;16.63;;;;;;;;;;1815951;77;21035;-50
2022/12/22 06:48:18;;;;;;;27.90;15.93;;;;;;;;;;1814536;77;21017;-50
2022/12/22 06:50:44;;;;;;;28.77;17.20;;;;;;;;;;1818904;77;23073;-49
2022/12/22 06:53:11;;;;;;;26.03;17.63;;;;;;;;;;1818702;77;21616;-49
2022/12/22 06:55:37;;;;;;;32.13;18.03;;;;;;;;;;1818165;77;21094;-49
2022/12/22 06:58:04;;;;;;;28.17;17.97;;;;;;;;;;1815115;77;21080;-50
2022/12/22 07:00:30;;;;;;;26.10;16.30;;;;;;;;;;1826892;77;21604;-53
2022/12/22 07:02:56;;;;;;;26.30;16.97;;;;;;;;;;1825290;77;21809;-53
2022/12/22 07:05:23;;;;;;;30.43;18.93;;;;;;;;;;1820578;77;21039;-51
2022/12/22 07:07:50;;;;;;;29.33;17.57;;;;;;;;;;1820139;77;21072;-51
2022/12/22 07:10:16;;;;;;;28.77;16.63;;;;;;;;;;1819393;77;21103;-51
2022/12/22 07:12:42;;;;;;;30.17;17.33;;;;;;;;;;1814497;77;21128;-51
2022/12/22 07:15:09;;;;;;;26.70;16.13;;;;;;;;;;1819204;77;21809;-50
2022/12/22 07:17:36;;;;;;;28.40;16.87;;;;;;;;;;1823939;77;20987;-52
2022/12/22 07:20:03;;;;;;;30.83;17.33;;;;;;;;;;1822097;77;21304;-51
2022/12/22 07:22:30;;;;;;;30.13;16.87;;;;;;;;;;1797201;77;21007;-49
2022/12/22 07:24:57;;;;;;;29.47;16.67;;;;;;;;;;1787390;78;21048;-51
2022/12/22 07:27:23;;;;;;;27.80;16.70;;;;;;;;;;1794391;78;21827;-50
2022/12/22 07:29:50;;;;;;;26.93;16.33;;;;;;;;;;1788071;78;20978;-49
2022/12/22 07:32:16;;;;;;;32.53;18.93;;;;;;;;;;1793475;78;21055;-51
2022/12/22 07:34:43;;;;;;;32.63;19.07;;;;;;;;;;1792069;78;21043;-49
2022/12/22 07:37:09;;;;;;;28.27;18.53;;;;;;;;;;1794155;78;21552;-50
2022/12/22 07:39:35;;;;;;;28.73;17.47;;;;;;;;;;1770839;78;21836;-50
2022/12/22 07:44:46;;;;;;;;;;;;;;;;;;1797285;78;21068;-48
2022/12/22 07:47:12;;;;;;;26.83;15.70;;;;;;;;;;1791007;78;27933;-48
2022/12/22 07:52:24;;;;;;;30.03;17.47;;;;;;;;;;1793199;78;21818;-49
2022/12/22 07:54:50;;;;;;;29.07;18.17;;;;;;;;;;1795047;78;21068;-49
2022/12/22 07:57:16;;;;;;;28.03;17.53;;;;;;;;;;1795618;78;21683;-49
2022/12/22 07:59:42;;;;;;;33.50;19.57;;;;;;;;;;1799488;78;21029;-49
2022/12/22 08:02:10;;;;;;;28.07;17.83;;;;;;;;;;1792601;78;21029;-50
2022/12/22 08:04:36;;;;;;;32.60;18.50;;;;;;;;;;1795730;78;21932;-50
2022/12/22 08:07:02;;;;;;;27.93;17.30;;;;;;;;;;1794449;78;21132;-48
2022/12/22 08:09:28;;;;;;;25.70;16.00;;;;;;;;;;1795203;78;21041;-49
2022/12/22 08:11:55;;;;;;;25.77;15.77;;;;;;;;;;1795678;78;21041;-49
2022/12/22 08:14:21;;;;;;;29.27;17.63;;;;;;;;;;1791449;78;21080;-50
2022/12/22 08:16:47;;;;;;;26.63;17.40;;;;;;;;;;1795268;78;21815;-49
2022/12/22 08:19:13;;;;;;;31.73;16.43;;;;;;;;;;1791886;78;21036;-50
2022/12/22 08:21:39;;;;;;;28.83;18.53;;;;;;;;;;1798419;78;21024;-49
2022/12/22 08:24:06;;;;;;;31.97;16.70;;;;;;;;;;1790792;78;21082;-49
2022/12/22 08:26:40;;;;;;;28.80;19.50;;;;;;;;;;1790779;78;21233;-50
2022/12/22 08:29:19;;;;;;;28.60;19.02;;;;;;;;;;1790963;78;21777;-49
2022/12/22 08:31:45;;;;;;;27.90;17.23;;;;;;;;;;1794267;78;21320;-50
2022/12/22 08:34:13;;;;;;;33.77;18.97;;;;;;;;;;1790222;78;21083;-49
2022/12/22 08:36:40;;;;;;;29.90;18.37;;;;;;;;;;1793994;78;21076;-49
2022/12/22 08:39:06;;;;;;;32.30;18.60;;;;;;;;;;1789572;78;21633;-50
2022/12/22 08:41:51;;;;;;;28.67;18.47;;;;;;;;;;1791996;78;21821;-50
2022/12/22 08:44:23;;;;;;;29.90;17.37;;;;;;;;;;1791055;78;20992;-50
2022/12/22 08:46:49;;;;;;;31.10;18.13;;;;;;;;;;1789165;78;20973;-50
2022/12/22 08:49:15;;;;;;;29.90;18.80;;;;;;;;;;1790367;78;20988;-50
2022/12/22 08:51:42;;;;;;;30.73;18.97;;;;;;;;;;1789200;78;20993;-49
2022/12/22 08:54:08;;;;;;;34.23;19.00;;;;;;;;;;1792369;78;22434;-51
2022/12/22 08:56:34;;;;;;;30.10;17.93;;;;;;;;;;1793752;78;20981;-49
2022/12/22 08:59:04;;;;;;;32.00;19.67;;;;;;;;;;1792548;78;21046;-49
2022/12/22 09:01:31;;;;;;;30.20;19.73;;;;;;;;;;1788813;78;21044;-49
2022/12/22 09:03:57;;;;;;;29.23;18.87;;;;;;;;;;1790135;78;21389;-50
2022/12/22 09:06:24;;;;;;;40.53;21.77;;;;;;;;;;1790471;78;21828;-51
2022/12/22 09:08:54;;;;;;;32.80;20.13;;;;;;;;;;1796295;78;20997;-50
2022/12/22 09:11:20;;;;;;;32.37;19.97;;;;;;;;;;1794187;78;21034;-51
2022/12/22 09:13:46;;;;;;;31.17;20.50;;;;;;;;;;1799494;78;21044;-50
2022/12/22 09:16:12;;;;;;;35.20;20.53;;;;;;;;;;1787736;78;20981;-50
2022/12/22 09:18:39;;;;;;;34.27;21.00;;;;;;;;;;1796596;77;21770;-50
2022/12/22 09:21:05;;;;;;;32.43;21.03;;;;;;;;;;1792207;78;21448;-51
2022/12/22 09:23:31;;;;;;;37.87;20.47;;;;;;;;;;1798627;78;20977;-53
2022/12/22 09:25:57;;;;;;;29.00;19.70;;;;;;;;;;1795641;78;21035;-52
2022/12/22 09:28:23;;;;;;;29.90;16.93;;;;;;;;;;1795628;78;21432;-53
2022/12/22 09:30:51;;;;;;;29.40;18.73;;;;;;;;;;1790339;78;23300;-52
2022/12/22 09:33:17;;;;;;;29.97;19.97;;;;;;;;;;1790721;78;21826;-51
2022/12/22 09:35:43;;;;;;;29.57;19.03;;;;;;;;;;1790934;78;21052;-53
2022/12/22 09:38:09;;;;;;;30.07;19.37;;;;;;;;;;1785570;78;20964;-50
2022/12/22 09:40:35;;;;;;;26.50;18.07;;;;;;;;;;1786629;78;21080;-51
2022/12/22 09:43:02;;;;;;;29.40;18.97;;;;;;;;;;1792136;78;21835;-51
2022/12/22 09:45:29;;;;;;;28.63;18.57;;;;;;;;;;1789248;78;21407;-53
2022/12/22 09:47:55;;;;;;;28.93;18.00;;;;;;;;;;1787945;78;20966;-52
2022/12/22 09:50:23;;;;;;;31.20;20.13;;;;;;;;;;1787261;78;21051;-52
2022/12/22 09:52:55;;;;;;;30.10;17.73;;;;;;;;;;1796196;78;21017;-51
2022/12/22 09:55:27;;;;;;;29.60;17.60;;;;;;;;;;1797071;78;21827;-51
2022/12/22 09:57:53;;;;;;;30.47;18.77;;;;;;;;;;1791653;78;21040;-51
2022/12/22 10:00:22;;;;;;;31.03;20.00;;;;;;;;;;1790575;78;21033;-51
2022/12/22 10:03:09;;;;;;;27.10;18.00;;;;;;;;;;1754530;80;21270;-51
2022/12/22 10:05:44;;;;;;;28.43;18.07;;;;;;;;;;1687649;81;21088;-53
2022/12/22 10:08:12;;;;;;;29.70;19.30;;;;;;;;;;1735542;80;21921;-53
2022/12/22 10:10:39;;;;;;;31.97;18.93;;;;;;;;;;1734942;80;21068;-53
2022/12/22 10:13:05;;;;;;;28.33;16.50;;;;;;;;;;1729341;81;21636;-52
2022/12/22 10:15:34;;;;;;;29.20;19.83;;;;;;;;;;1734028;81;21363;-52
2022/12/22 10:18:13;;;;;;;30.40;19.00;;;;;;;;;;1735006;81;21475;-51
2022/12/22 10:20:40;;;;;;;30.47;18.70;;;;;;;;;;1734378;81;21823;-55
2022/12/22 10:23:15;;;;;;;31.30;19.97;;;;;;;;;;1753718;80;21033;-54
2022/12/22 10:25:57;;;;;;;25.67;17.20;;;;;;;;;;1756487;80;21034;-52
2022/12/22 10:28:31;;;;;;;30.80;18.27;;;;;;;;;;1758419;80;21366;-53
2022/12/22 10:31:16;;;;;;;34.07;20.60;;;;;;;;;;1755933;80;22106;-53
2022/12/22 10:33:43;;;;;;;32.45;19.15;;;;;;;;;;1721743;81;21837;-52
2022/12/22 10:36:09;;;;;;;29.70;18.93;;;;;;;;;;1727871;81;21053;-51
2022/12/22 10:38:37;;;;;;;32.60;19.60;;;;;;;;;;1735435;81;21085;-50
2022/12/22 10:41:18;;;;;;;31.10;18.70;;;;;;;;;;1731956;81;21065;-51
2022/12/22 10:43:55;;;;;;;33.13;20.63;;;;;;;;;;1732592;81;21057;-51
2022/12/22 10:46:42;;;;;;;34.97;20.67;;;;;;;;;;1733976;80;21801;-50
2022/12/22 10:49:19;;;;;;;30.03;19.67;;;;;;;;;;1734908;81;21605;-51
2022/12/22 10:51:49;;;;;;;35.27;20.03;;;;;;;;;;1735147;80;21071;-52
2022/12/22 10:54:28;;;;;;;33.47;20.83;;;;;;;;;;1734247;81;21565;-51
2022/12/22 10:57:00;;;;;;;32.10;19.33;;;;;;;;;;1752411;80;21108;-52
2022/12/22 10:59:26;;;;;;;29.27;18.70;;;;;;;;;;1728762;81;21836;-52
2022/12/22 11:01:52;;;;;;;35.83;21.70;;;;;;;;;;1732693;81;21526;-51
2022/12/22 11:04:26;;;;;;;30.27;20.63;;;;;;;;;;1731016;81;21040;-51
2022/12/22 11:06:54;;;;;;;38.08;21.93;;;;;;;;;;1723230;81;21051;-51
2022/12/22 11:09:20;;;;;;;34.80;19.97;;;;;;;;;;1731363;81;21064;-52
2022/12/22 11:11:52;;;;;;;29.33;18.67;;;;;;;;;;1738762;80;22477;-50
2022/12/22 11:14:33;;;;;;;30.57;19.27;;;;;;;;;;1737035;81;22026;-52
2022/12/22 11:17:12;;;;;;;26.73;18.00;;;;;;;;;;1730930;81;21936;-51
2022/12/22 11:19:47;;;;;;;30.00;19.10;;;;;;;;;;1737111;81;21077;-52
2022/12/22 11:22:30;;;;;;;34.83;20.73;;;;;;;;;;1743443;80;21390;-51
2022/12/22 11:25:06;;;;;;;40.03;21.50;;;;;;;;;;1741468;80;21841;-53
2022/12/22 11:27:48;;;;;;;33.87;20.70;;;;;;;;;;1748410;80;21580;-52
2022/12/22 11:30:36;;;;;;;34.40;20.10;;;;;;;;;;1757867;80;21060;-52
2022/12/22 11:33:06;;;;;;;33.57;20.53;;;;;;;;;;1719947;81;21099;-52
2022/12/22 11:35:45;;;;;;;30.17;20.37;;;;;;;;;;1738547;80;21526;-52
2022/12/22 11:38:15;;;;;;;32.77;21.50;;;;;;;;;;1739657;80;22556;-52
2022/12/22 11:40:45;;;;;;;35.53;23.27;;;;;;;;;;1739297;81;21377;-51
2022/12/22 11:43:23;;;;;;;37.03;22.20;;;;;;;;;;1733162;81;21041;-51
2022/12/22 11:46:09;;;;;;;34.27;22.93;;;;;;;;;;1753991;80;21633;-52
2022/12/22 11:49:02;;;;;;;34.07;20.93;;;;;;;;;;1729890;81;21601;-53
2022/12/22 11:51:53;;;;;;;31.30;20.97;;;;;;;;;;1742190;80;21784;-52
2022/12/22 11:54:47;;;;;;;32.90;20.60;;;;;;;;;;1736945;80;20963;-52
2022/12/22 11:57:37;;;;;;;33.00;18.80;;;;;;;;;;1737047;81;21026;-53
2022/12/22 12:00:09;;;;;;;31.47;20.50;;;;;;;;;;1738265;80;21022;-52
2022/12/22 12:03:05;;;;;;;31.20;20.00;;;;;;;;;;1738187;80;21013;-53
2022/12/22 12:05:55;;;;;;;30.17;19.73;;;;;;;;;;1739899;81;21847;-52
2022/12/22 12:08:45;;;;;;;34.03;20.33;;;;;;;;;;1740460;81;21518;-52
2022/12/22 12:11:24;;;;;;;33.37;20.93;;;;;;;;;;1756523;80;21006;-52
2022/12/22 12:14:09;;;;;;;39.50;23.30;;;;;;;;;;1759523;80;21447;-52
2022/12/22 12:16:53;;;;;;;34.53;21.93;;;;;;;;;;1758304;80;21055;-52
2022/12/22 12:19:34;;;;;;;38.33;22.03;;;;;;;;;;1764005;80;21835;-52
2022/12/22 12:22:02;;;;;;;39.00;23.20;;;;;;;;;;1760233;80;21463;-52
2022/12/22 12:24:47;;;;;;;36.40;23.03;;;;;;;;;;1744631;80;21017;-52
2022/12/22 12:27:19;;;;;;;37.73;22.62;;;;;;;;;;1741685;80;28987;-52
2022/12/22 12:29:50;;;;;;;33.97;22.17;;;;;;;;;;1737087;80;21488;-52
2022/12/22 12:32:19;;;;;;;34.90;23.13;;;;;;;;;;1758795;80;22468;-52
2022/12/22 12:34:48;;;;;;;35.47;22.57;;;;;;;;;;1751369;80;21943;-52
2022/12/22 12:37:24;;;;;;;42.57;26.23;;;;;;;;;;1729712;81;21457;-52
2022/12/22 12:39:59;;;;;;;33.07;21.77;;;;;;;;;;1731128;81;21527;-52
2022/12/22 12:42:35;;;;;;;33.10;23.00;;;;;;;;;;1734054;81;21310;-53
2022/12/22 12:45:04;;;;;;;37.17;23.03;;;;;;;;;;1732203;81;22276;-53
2022/12/22 12:47:34;;;;;;;38.00;24.03;;;;;;;;;;1728839;81;21110;-53
2022/12/22 12:50:07;;;;;;;36.27;21.57;;;;;;;;;;1733363;80;21558;-53
2022/12/22 12:52:47;;;;;;;37.30;20.30;;;;;;;;;;1728848;81;21093;-53
2022/12/22 12:55:30;;;;;;;33.10;21.93;;;;;;;;;;1733415;81;21057;-53
2022/12/22 12:57:57;;;;;;;34.43;20.27;;;;;;;;;;1731711;81;21850;-51
2022/12/22 13:00:36;;;;;;;34.70;21.60;;;;;;;;;;1731540;81;21129;-53
2022/12/22 13:03:04;;;;;;;31.93;21.27;;;;;;;;;;1732919;81;21045;-52
2022/12/22 13:05:35;;;;;;;30.00;20.60;;;;;;;;;;1728564;81;21081;-53
2022/12/22 13:08:19;;;;;;;32.67;20.53;;;;;;;;;;1729755;81;21065;-54
2022/12/22 13:10:47;;;;;;;32.03;21.20;;;;;;;;;;1731723;81;21822;-52
2022/12/22 13:13:27;;;;;;;37.10;22.53;;;;;;;;;;1728433;81;22426;-53
2022/12/22 13:16:03;;;;;;;34.07;21.87;;;;;;;;;;1728444;81;21025;-54
2022/12/22 13:18:43;;;;;;;40.57;27.33;;;;;;;;;;1733528;81;21044;-53
2022/12/22 13:21:15;;;;;;;36.67;24.27;;;;;;;;;;1729151;81;21500;-52
2022/12/22 13:23:57;;;;;;;39.73;25.37;;;;;;;;;;1758594;80;22509;-51
2022/12/22 13:26:25;;;;;;;38.50;23.20;;;;;;;;;;1732683;81;21509;-51
2022/12/22 13:29:00;;;;;;;35.13;21.70;;;;;;;;;;1731886;81;21369;-53
2022/12/22 13:31:35;;;;;;;34.57;20.10;;;;;;;;;;1730014;81;21054;-52
2022/12/22 13:34:13;;;;;;;36.17;21.10;;;;;;;;;;1726587;79;21101;-54
2022/12/22 13:36:39;;;;;;;31.23;19.47;;;;;;;;;;1759898;80;21880;-52
2022/12/22 13:39:11;;;;;;;38.73;22.97;;;;;;;;;;1759510;80;21092;-53
2022/12/22 13:41:39;;;;;;;35.17;23.10;;;;;;;;;;1717967;81;21062;-53
2022/12/22 13:44:09;;;;;;;33.53;21.07;;;;;;;;;;1701648;82;21625;-53
2022/12/22 13:46:35;;;;;;;41.07;25.07;;;;;;;;;;1702022;81;21074;-54
2022/12/22 13:49:03;;;;;;;40.93;24.53;;;;;;;;;;1726829;81;21960;-53
2022/12/22 13:51:33;;;;;;;36.83;24.20;;;;;;;;;;1731264;81;21542;-55
2022/12/22 13:54:01;;;;;;;42.03;24.10;;;;;;;;;;1727961;81;21076;-52
2022/12/22 13:56:36;;;;;;;37.17;21.93;;;;;;;;;;1702720;82;22176;-53
2022/12/22 13:59:02;;;;;;;47.73;28.95;;;;;;;;;;1739286;80;21314;-54
2022/12/22 14:01:28;;;;;;;41.03;24.53;;;;;;;;;;1720446;82;22045;-53
2022/12/22 14:04:00;;;;;;;45.73;32.63;;;;;;;;;;1726679;82;21041;-52
2022/12/22 14:06:34;;;;;;;43.17;26.80;;;;;;;;;;1744659;80;21552;-53
2022/12/22 14:09:22;;;;;;;51.53;30.13;;;;;;;;;;1739680;80;21049;-53
2022/12/22 14:11:56;;;;;;;42.60;28.67;;;;;;;;;;1737497;80;21065;-53
2022/12/22 14:14:27;;;;;;;38.30;25.97;;;;;;;;;;1740900;80;21828;-53
2022/12/22 14:16:56;;;;;;;40.50;24.50;;;;;;;;;;1738920;80;21021;-52
2022/12/22 14:19:22;;;;;;;45.07;28.20;;;;;;;;;;1736464;81;21061;-54
2022/12/22 14:21:52;;;;;;;43.30;28.73;;;;;;;;;;1738881;80;21473;-54
2022/12/22 14:24:21;;;;;;;37.00;22.90;;;;;;;;;;1714542;78;72462;-71
2022/12/22 16:28:23;;;;;;;41.50;27.27;;;;;;;2.40;100.00;99405.69;1866746;75;27415;-55
2022/12/22 16:30:50;;;;;;;46.70;29.80;;;;;;;2.49;100.00;99442.69;1834162;77;21326;-55
2022/12/22 16:33:17;;;;;;;42.83;26.93;;;;;;;2.55;100.00;99433.26;1836926;77;21845;-53
2022/12/22 16:35:43;;;;;;;43.63;25.23;;;;;;;2.62;100.00;99436.23;1778849;78;21321;-54
2022/12/22 16:38:10;;;;;;;41.57;26.33;;;;;;;2.68;100.00;99436.55;1786149;78;21060;-53
2022/12/22 16:40:45;;;;;;;43.90;26.67;;;;;;;2.74;100.00;99435.53;1794741;78;21104;-55
2022/12/22 16:43:20;;;;;;;44.20;26.23;;;;;;;2.78;100.00;99432.78;1800577;78;21542;-55
2022/12/22 16:45:46;;;;;;;45.90;28.65;;;;;;;2.81;100.00;99434.02;1798252;77;21829;-53
2022/12/22 16:48:23;;;;;;;45.80;27.77;;;;;;;2.83;100.00;99431.34;1797333;78;21632;-53
2022/12/22 16:50:50;;;;;;;45.50;28.17;;;;;;;2.83;100.00;99427.35;1771557;79;21012;-54
2022/12/22 16:53:16;;;;;;;47.70;28.63;;;;;;;2.83;100.00;99429.56;1777940;78;21157;-54
2022/12/22 16:55:43;;;;;;;48.10;28.40;;;;;;;2.84;100.00;99431.77;1761720;80;21625;-53
2022/12/22 16:58:10;;;;;;;43.50;24.60;;;;;;;2.83;100.00;99434.88;1774683;79;21969;-54
2022/12/22 17:00:38;;;;;;;44.90;27.13;;;;;;;2.82;100.00;99437.11;1779335;79;21392;-55
2022/12/22 17:03:24;;;;;;;46.87;28.17;;;;;;;2.82;100.00;99433.12;1770103;78;21039;-53
2022/12/22 17:05:53;;;;;;;42.87;25.73;;;;;;;2.83;100.00;99426.02;1761891;80;21061;-55
2022/12/22 17:08:24;;;;;;;41.10;25.47;;;;;;;2.83;100.00;99425.57;1801397;78;21073;-53
2022/12/22 17:10:52;;;;;;;47.73;28.60;;;;;;;2.85;100.00;99428.20;1801701;78;22557;-54
2022/12/22 17:13:19;;;;;;;46.97;27.63;;;;;;;2.86;100.00;99420.20;1770854;78;21053;-53
2022/12/22 17:15:45;;;;;;;48.73;27.53;;;;;;;2.86;100.00;99424.64;1779770;79;21048;-54
2022/12/22 17:18:16;;;;;;;52.07;29.17;;;;;;;2.85;100.00;99421.55;1782556;79;21327;-54
2022/12/22 17:20:44;;;;;;;49.20;29.17;;;;;;;2.84;100.00;99420.68;1784311;78;21064;-54
2022/12/22 17:23:34;;;;;;;43.27;26.93;;;;;;;2.83;100.00;99416.27;1785019;79;22301;-53
2022/12/22 17:26:04;;;;;;;47.83;28.10;;;;;;;2.82;100.00;99414.52;1784891;79;21502;-54
2022/12/22 17:28:31;;;;;;;46.57;28.63;;;;;;;2.82;100.00;99414.52;1786372;79;21001;-54
2022/12/22 17:30:58;;;;;;;46.40;28.33;;;;;;;2.82;100.00;99406.54;1781310;78;20974;-54
2022/12/22 17:33:25;;;;;;;48.57;29.67;;;;;;;2.81;100.00;99395.48;1781067;78;21021;-54
2022/12/22 17:35:52;;;;;;;49.63;28.37;;;;;;;2.82;100.00;99397.23;1782615;79;21788;-54
2022/12/22 17:38:19;;;;;;;53.17;33.30;;;;;;;2.81;100.00;99398.14;1781539;79;21409;-55
2022/12/22 17:40:47;;;;;;;48.90;30.83;;;;;;;2.80;100.00;99399.08;1783578;78;20999;-54
2022/12/22 17:43:18;;;;;;;51.23;30.70;;;;;;;2.81;100.00;99401.25;1807855;78;20986;-56
2022/12/22 17:45:47;;;;;;;51.10;31.03;;;;;;;2.80;100.00;99396.88;1779272;78;21049;-53
2022/12/22 17:48:14;;;;;;;52.03;30.10;;;;;;;2.79;100.00;99401.31;1783067;78;21853;-54
2022/12/22 17:50:43;;;;;;;51.10;30.57;;;;;;;2.79;100.00;99401.77;1787182;78;21506;-52
2022/12/22 17:53:13;;;;;;;46.77;28.53;;;;;;;2.80;100.00;99407.51;1798712;78;21294;-54
2022/12/22 17:55:39;;;;;;;48.60;30.97;;;;;;;2.82;100.00;99403.00;1808392;78;20986;-53
2022/12/22 17:58:05;;;;;;;50.43;30.40;;;;;;;2.83;100.00;99406.09;1771590;79;21114;-54
2022/12/22 18:00:32;;;;;;;48.17;29.07;;;;;;;2.85;100.00;99401.17;1806892;78;21816;-50
2022/12/22 18:02:58;;;;;;;59.43;31.90;;;;;;;2.87;100.00;99394.49;1779112;78;21093;-52
2022/12/22 18:05:27;;;;;;;50.50;30.53;;;;;;;2.89;100.00;99397.52;1787061;78;21247;-52
2022/12/22 18:07:58;;;;;;;50.63;31.60;;;;;;;2.88;100.00;99399.78;1783870;78;21135;-51
2022/12/22 18:10:29;;;;;;;51.73;32.17;;;;;;;2.89;100.00;99398.00;1779797;80;21053;-51
2022/12/22 18:12:57;;;;;;;57.73;33.73;;;;;;;2.88;100.00;99400.23;1775989;80;21841;-54
2022/12/22 18:15:24;;;;;;;52.40;30.97;;;;;;;2.87;100.00;99399.36;1785606;78;21041;-52
2022/12/22 18:17:51;;;;;;;54.27;32.87;;;;;;;2.87;100.00;99405.13;1782026;78;21017;-52
2022/12/22 18:20:23;;;;;;;52.83;32.43;;;;;;;2.86;100.00;99410.02;1784255;78;22399;-53
2022/12/22 18:22:54;;;;;;;53.00;30.53;;;;;;;2.86;100.00;99408.23;1773875;78;21585;-54
2022/12/22 18:25:24;;;;;;;50.57;31.07;;;;;;;2.86;100.00;99397.60;1779354;78;21806;-52
2022/12/22 18:27:50;;;;;;;50.07;29.53;;;;;;;2.86;100.00;99401.59;1778223;79;21014;-54
2022/12/22 18:30:25;;;;;;;53.17;32.67;;;;;;;2.86;100.00;99405.58;1781062;79;21024;-53
2022/12/22 18:32:52;;;;;;;57.13;33.43;;;;;;;2.86;100.00;99396.27;1803933;77;21128;-54
2022/12/22 18:35:24;;;;;;;53.07;31.67;;;;;;;2.84;100.00;99403.41;1778456;78;21055;-52
2022/12/22 18:37:53;;;;;;;63.80;37.70;;;;;;;2.84;100.00;99408.72;1799903;78;21843;-52
2022/12/22 18:40:35;;;;;;;53.10;31.50;;;;;;;2.83;100.00;99413.61;1798742;78;21029;-54
2022/12/22 18:43:02;;;;;;;55.33;32.73;;;;;;;2.82;100.00;99409.20;1798814;77;21040;-52
2022/12/22 18:45:29;;;;;;;57.37;33.30;;;;;;;2.81;100.00;99406.57;1779634;78;21564;-54
2022/12/22 18:47:56;;;;;;;49.40;30.90;;;;;;;2.78;100.00;99404.00;1783737;78;21627;-53
2022/12/22 18:50:29;;;;;;;54.70;31.43;;;;;;;2.74;100.00;99404.51;1765239;78;21834;-54
2022/12/22 18:52:57;;;;;;;55.03;34.03;;;;;;;2.72;100.00;99399.70;1765582;80;21014;-54
2022/12/22 18:55:26;;;;;;;50.07;30.20;;;;;;;2.71;100.00;99400.61;1781222;78;21037;-53
2022/12/22 18:57:54;;;;;;;60.57;36.53;;;;;;;2.70;100.00;99398.86;1805003;77;22143;-53
2022/12/22 19:00:23;;;;;;;55.63;34.33;;;;;;;2.68;100.00;99394.02;1804094;77;21038;-53
2022/12/22 19:02:51;;;;;;;60.90;34.77;;;;;;;2.66;100.00;99399.82;1772577;78;21802;-52
2022/12/22 19:05:20;;;;;;;66.73;40.43;;;;;;;2.67;100.00;99404.23;1798340;77;21032;-52
2022/12/22 19:07:47;;;;;;;60.90;35.27;;;;;;;2.64;100.00;99402.50;1800543;78;21005;-51
2022/12/22 19:10:18;;;;;;;54.90;33.40;;;;;;;2.64;100.00;99391.00;1780418;78;21530;-52
2022/12/22 19:12:53;;;;;;;68.33;40.20;;;;;;;2.63;100.00;99393.27;1780936;78;21077;-54
2022/12/22 19:15:26;;;;;;;64.87;38.17;;;;;;;2.63;100.00;99393.27;1799574;78;21927;-53
2022/12/22 19:17:53;;;;;;;61.60;36.27;;;;;;;2.61;100.00;99397.28;1784340;78;21405;-53
2022/12/22 19:20:20;;;;;;;54.53;34.77;;;;;;;2.62;100.00;99391.52;1777869;79;21037;-52
2022/12/22 19:22:47;;;;;;;56.70;35.30;;;;;;;2.63;100.00;99400.78;1775270;79;21064;-54
2022/12/22 19:25:17;;;;;;;49.83;33.07;;;;;;;2.65;100.00;99392.75;1781327;78;21716;-53
2022/12/22 19:27:43;;;;;;;54.07;33.63;;;;;;;2.65;100.00;99389.64;1800033;78;22336;-52
2022/12/22 19:30:22;;;;;;;54.20;31.93;;;;;;;2.65;100.00;99396.73;1799229;78;21030;-52
2022/12/22 19:32:54;;;;;;;59.60;37.77;;;;;;;2.65;100.00;99390.97;1778759;78;21071;-52
2022/12/22 19:35:23;;;;;;;63.27;36.63;;;;;;;2.63;100.00;99387.95;1798161;77;21116;-53
2022/12/22 19:37:51;;;;;;;60.40;36.77;;;;;;;2.60;100.00;99384.89;1791056;78;21604;-55
2022/12/22 19:40:20;;;;;;;53.27;33.57;;;;;;;2.59;100.00;99378.28;1797398;77;21076;-53
2022/12/22 19:42:49;;;;;;;58.00;35.90;;;;;;;2.58;100.00;99376.53;1776589;78;21044;-53
2022/12/22 19:45:23;;;;;;;50.03;33.00;;;;;;;2.55;100.00;99371.30;1804032;78;21052;-54
2022/12/22 19:47:51;;;;;;;58.60;34.60;;;;;;;2.53;100.00;99367.80;1781613;78;21042;-53
2022/12/22 19:50:25;;;;;;;54.47;32.53;;;;;;;2.51;100.00;99365.62;1774181;79;21135;-52
2022/12/22 19:52:53;;;;;;;53.93;33.57;;;;;;;2.49;100.00;99371.41;1779010;79;21816;-52
2022/12/22 19:55:20;;;;;;;50.17;30.80;;;;;;;2.48;100.00;99361.69;1770114;79;22310;-54
2022/12/22 19:57:49;;;;;;;56.07;33.87;;;;;;;2.49;100.00;99363.45;1774364;79;21096;-53
2022/12/22 20:00:24;;;;;;;61.60;35.37;;;;;;;2.47;100.00;99373.22;1771738;79;21037;-56
2022/12/22 20:02:53;;;;;;;59.70;36.43;;;;;;;-144.06;100.00;116433.64;1773062;79;21040;-56
